Terminal Aerodrome Forecast
Issued by NWS Billings, MT

Home | Current Version | Previous Version | Text Only | Print | Product List | Glossary Off
Versions: 1 2 3 4 5 6 7 8 9 10 11 12 13 14 15 16 17 18 19 20 21 22 23 24 25 26 27 28 29 30 31 32 33

000
FTUS45 KBYZ 222320
TAFMLS
TAF
KMLS 222320Z 2300/2324 23012KT P6SM -SHRA SCT035 BKN060
     FM230200 26014G21KT P6SM VCSH SCT060 BKN250
     FM230500 28020G30KT P6SM BKN080=

USA.gov is the U.S. government's official web portal to all federal, state and local government web resources and services.